sensor_id;sensor_type;location;lat;lon;timestamp;pressure;altitude;pressure_sealevel;temperature;humidity
47742;BME280;33504;52.066;6.096;2024-01-27T00:00:47;103313.47;;;5.41;48.80
47742;BME280;33504;52.066;6.096;2024-01-27T00:03:14;103315.07;;;5.66;48.37
47742;BME280;33504;52.066;6.096;2024-01-27T00:05:42;103320.90;;;5.41;48.73
47742;BME280;33504;52.066;6.096;2024-01-27T00:08:09;103321.06;;;5.04;49.01
47742;BME280;33504;52.066;6.096;2024-01-27T00:10:36;103320.66;;;5.38;48.82
47742;BME280;33504;52.066;6.096;2024-01-27T00:13:04;103323.70;;;5.20;49.05
47742;BME280;33504;52.066;6.096;2024-01-27T00:15:30;103329.65;;;5.08;49.34
47742;BME280;33504;52.066;6.096;2024-01-27T00:17:57;103327.65;;;5.26;49.03
47742;BME280;33504;52.066;6.096;2024-01-27T00:20:24;103325.10;;;5.34;48.89
47742;BME280;33504;52.066;6.096;2024-01-27T00:22:51;103321.69;;;5.29;49.03
47742;BME280;33504;52.066;6.096;2024-01-27T00:25:19;103324.07;;;5.10;48.92
47742;BME280;33504;52.066;6.096;2024-01-27T00:27:46;103333.54;;;5.21;49.35
47742;BME280;33504;52.066;6.096;2024-01-27T00:30:13;103332.28;;;5.03;49.70
47742;BME280;33504;52.066;6.096;2024-01-27T00:32:40;103328.30;;;5.22;49.33
47742;BME280;33504;52.066;6.096;2024-01-27T00:35:07;103330.85;;;5.37;49.06
47742;BME280;33504;52.066;6.096;2024-01-27T00:37:35;103331.73;;;5.42;48.87
47742;BME280;33504;52.066;6.096;2024-01-27T00:40:03;103330.00;;;5.27;48.77
47742;BME280;33504;52.066;6.096;2024-01-27T00:42:30;103329.66;;;5.29;49.01
47742;BME280;33504;52.066;6.096;2024-01-27T00:44:57;103328.42;;;5.27;49.17
47742;BME280;33504;52.066;6.096;2024-01-27T00:47:24;103322.59;;;4.82;49.75
47742;BME280;33504;52.066;6.096;2024-01-27T00:49:52;103324.39;;;4.84;49.52
47742;BME280;33504;52.066;6.096;2024-01-27T00:52:18;103330.77;;;5.17;49.66
47742;BME280;33504;52.066;6.096;2024-01-27T00:54:45;103333.58;;;5.06;49.55
47742;BME280;33504;52.066;6.096;2024-01-27T00:57:12;103331.47;;;5.19;49.31
47742;BME280;33504;52.066;6.096;2024-01-27T00:59:39;103335.58;;;5.20;49.14
47742;BME280;33504;52.066;6.096;2024-01-27T01:02:06;103331.86;;;5.13;49.32
47742;BME280;33504;52.066;6.096;2024-01-27T01:04:34;103335.09;;;5.20;49.10
47742;BME280;33504;52.066;6.096;2024-01-27T01:07:02;103338.21;;;5.15;49.31
47742;BME280;33504;52.066;6.096;2024-01-27T01:09:28;103335.59;;;5.14;49.27
47742;BME280;33504;52.066;6.096;2024-01-27T01:11:55;103336.91;;;5.08;49.26
47742;BME280;33504;52.066;6.096;2024-01-27T01:14:23;103331.06;;;4.94;49.50
47742;BME280;33504;52.066;6.096;2024-01-27T01:16:50;103335.25;;;5.09;49.40
47742;BME280;33504;52.066;6.096;2024-01-27T01:19:18;103331.48;;;5.23;49.12
47742;BME280;33504;52.066;6.096;2024-01-27T01:21:44;103340.17;;;5.24;49.05
47742;BME280;33504;52.066;6.096;2024-01-27T01:24:11;103338.63;;;5.01;49.34
47742;BME280;33504;52.066;6.096;2024-01-27T01:26:38;103339.46;;;4.76;49.89
47742;BME280;33504;52.066;6.096;2024-01-27T01:29:05;103341.70;;;4.78;49.83
47742;BME280;33504;52.066;6.096;2024-01-27T01:31:31;103336.28;;;5.05;49.41
47742;BME280;33504;52.066;6.096;2024-01-27T01:33:58;103333.63;;;4.89;49.60
47742;BME280;33504;52.066;6.096;2024-01-27T01:36:25;103335.12;;;4.66;49.70
47742;BME280;33504;52.066;6.096;2024-01-27T01:38:52;103343.68;;;5.02;49.48
47742;BME280;33504;52.066;6.096;2024-01-27T01:41:19;103343.57;;;5.02;49.37
47742;BME280;33504;52.066;6.096;2024-01-27T01:43:47;103344.34;;;5.12;49.69
47742;BME280;33504;52.066;6.096;2024-01-27T01:46:14;103345.20;;;4.92;49.75
47742;BME280;33504;52.066;6.096;2024-01-27T01:48:40;103347.73;;;4.86;49.70
47742;BME280;33504;52.066;6.096;2024-01-27T01:51:08;103350.28;;;5.01;49.42
47742;BME280;33504;52.066;6.096;2024-01-27T01:53:35;103349.38;;;5.04;49.44
47742;BME280;33504;52.066;6.096;2024-01-27T01:56:03;103344.23;;;5.07;49.36
47742;BME280;33504;52.066;6.096;2024-01-27T01:58:31;103349.02;;;4.89;49.79
47742;BME280;33504;52.066;6.096;2024-01-27T02:00:58;103354.10;;;5.21;49.69
47742;BME280;33504;52.066;6.096;2024-01-27T02:03:25;103354.50;;;5.03;49.62
47742;BME280;33504;52.066;6.096;2024-01-27T02:05:51;103353.59;;;4.89;49.79
47742;BME280;33504;52.066;6.096;2024-01-27T02:08:18;103350.15;;;4.98;49.73
47742;BME280;33504;52.066;6.096;2024-01-27T02:10:45;103345.68;;;4.82;49.93
47742;BME280;33504;52.066;6.096;2024-01-27T02:13:17;103349.98;;;4.97;50.08
47742;BME280;33504;52.066;6.096;2024-01-27T02:15:45;103349.91;;;4.77;50.02
47742;BME280;33504;52.066;6.096;2024-01-27T02:18:12;103348.22;;;4.99;49.63
47742;BME280;33504;52.066;6.096;2024-01-27T02:20:38;103352.79;;;4.98;49.64
47742;BME280;33504;52.066;6.096;2024-01-27T02:23:05;103353.85;;;5.06;49.77
47742;BME280;33504;52.066;6.096;2024-01-27T02:25:33;103352.35;;;4.74;49.97
47742;BME280;33504;52.066;6.096;2024-01-27T02:28:01;103357.79;;;4.74;49.88
47742;BME280;33504;52.066;6.096;2024-01-27T02:30:28;103357.89;;;4.69;50.00
47742;BME280;33504;52.066;6.096;2024-01-27T02:32:56;103353.20;;;4.77;49.84
47742;BME280;33504;52.066;6.096;2024-01-27T02:35:24;103353.26;;;4.83;49.78
47742;BME280;33504;52.066;6.096;2024-01-27T02:37:51;103356.40;;;4.95;49.73
47742;BME280;33504;52.066;6.096;2024-01-27T02:40:18;103356.15;;;4.79;49.90
47742;BME280;33504;52.066;6.096;2024-01-27T02:42:45;103356.15;;;5.04;49.51
47742;BME280;33504;52.066;6.096;2024-01-27T02:45:12;103356.15;;;5.26;49.51
47742;BME280;33504;52.066;6.096;2024-01-27T02:47:40;103357.37;;;4.74;49.51
47742;BME280;33504;52.066;6.096;2024-01-27T02:50:07;103349.78;;;4.84;49.73
47742;BME280;33504;52.066;6.096;2024-01-27T02:52:34;103345.22;;;5.02;49.51
47742;BME280;33504;52.066;6.096;2024-01-27T02:55:02;103346.41;;;4.82;49.43
47742;BME280;33504;52.066;6.096;2024-01-27T02:57:28;103339.85;;;5.00;49.46
47742;BME280;33504;52.066;6.096;2024-01-27T02:59:56;103336.61;;;4.44;50.31
47742;BME280;33504;52.066;6.096;2024-01-27T03:02:23;103330.23;;;5.04;49.84
47742;BME280;33504;52.066;6.096;2024-01-27T03:04:51;103339.04;;;4.68;50.03
47742;BME280;33504;52.066;6.096;2024-01-27T03:07:18;103340.64;;;4.73;49.94
47742;BME280;33504;52.066;6.096;2024-01-27T03:09:45;103334.95;;;4.81;50.25
47742;BME280;33504;52.066;6.096;2024-01-27T03:12:12;103342.77;;;4.52;50.78
47742;BME280;33504;52.066;6.096;2024-01-27T03:14:39;103352.41;;;4.41;50.52
47742;BME280;33504;52.066;6.096;2024-01-27T03:17:06;103349.70;;;4.71;50.41
47742;BME280;33504;52.066;6.096;2024-01-27T03:19:33;103347.56;;;4.96;50.12
47742;BME280;33504;52.066;6.096;2024-01-27T03:22:00;103346.46;;;4.84;50.27
47742;BME280;33504;52.066;6.096;2024-01-27T03:24:27;103351.16;;;4.87;50.28
47742;BME280;33504;52.066;6.096;2024-01-27T03:26:54;103351.81;;;4.95;50.07
47742;BME280;33504;52.066;6.096;2024-01-27T03:29:22;103356.19;;;4.62;50.07
47742;BME280;33504;52.066;6.096;2024-01-27T03:31:49;103353.91;;;4.65;49.98
47742;BME280;33504;52.066;6.096;2024-01-27T03:34:15;103351.50;;;4.64;50.04
47742;BME280;33504;52.066;6.096;2024-01-27T03:36:42;103354.37;;;4.56;49.92
47742;BME280;33504;52.066;6.096;2024-01-27T03:39:09;103351.01;;;5.11;49.50
47742;BME280;33504;52.066;6.096;2024-01-27T03:41:36;103348.29;;;4.98;49.23
47742;BME280;33504;52.066;6.096;2024-01-27T03:44:03;103348.40;;;5.07;49.34
47742;BME280;33504;52.066;6.096;2024-01-27T03:46:30;103350.21;;;4.89;49.58
47742;BME280;33504;52.066;6.096;2024-01-27T03:48:57;103357.75;;;4.72;49.44
47742;BME280;33504;52.066;6.096;2024-01-27T03:51:24;103358.49;;;4.73;49.59
47742;BME280;33504;52.066;6.096;2024-01-27T03:53:52;103361.37;;;4.83;49.50
47742;BME280;33504;52.066;6.096;2024-01-27T03:56:19;103370.03;;;5.12;49.34
47742;BME280;33504;52.066;6.096;2024-01-27T03:58:46;103370.44;;;4.77;49.30
47742;BME280;33504;52.066;6.096;2024-01-27T04:01:12;103373.00;;;4.43;49.54
47742;BME280;33504;52.066;6.096;2024-01-27T04:03:39;103370.08;;;4.44;49.47
47742;BME280;33504;52.066;6.096;2024-01-27T04:06:06;103374.61;;;4.34;49.58
47742;BME280;33504;52.066;6.096;2024-01-27T04:08:33;103381.29;;;4.38;49.80
47742;BME280;33504;52.066;6.096;2024-01-27T04:11:00;103382.36;;;4.56;49.61
47742;BME280;33504;52.066;6.096;2024-01-27T04:13:26;103389.55;;;4.58;49.53
47742;BME280;33504;52.066;6.096;2024-01-27T04:15:53;103389.60;;;4.43;49.85
47742;BME280;33504;52.066;6.096;2024-01-27T04:18:20;103396.07;;;4.30;50.08
47742;BME280;33504;52.066;6.096;2024-01-27T04:20:47;103393.37;;;4.39;49.94
47742;BME280;33504;52.066;6.096;2024-01-27T04:23:15;103387.29;;;4.77;49.69
47742;BME280;33504;52.066;6.096;2024-01-27T04:25:42;103388.72;;;4.44;49.85
47742;BME280;33504;52.066;6.096;2024-01-27T04:28:09;103393.06;;;4.63;49.85
47742;BME280;33504;52.066;6.096;2024-01-27T04:30:37;103392.59;;;4.40;49.91
47742;BME280;33504;52.066;6.096;2024-01-27T04:33:04;103391.70;;;4.12;49.93
47742;BME280;33504;52.066;6.096;2024-01-27T04:35:31;103382.26;;;4.51;50.07
47742;BME280;33504;52.066;6.096;2024-01-27T04:37:58;103389.98;;;4.14;50.21
47742;BME280;33504;52.066;6.096;2024-01-27T04:40:25;103380.86;;;4.06;50.36
47742;BME280;33504;52.066;6.096;2024-01-27T04:42:52;103375.37;;;4.39;50.41
47742;BME280;33504;52.066;6.096;2024-01-27T04:45:19;103373.08;;;4.37;50.39
47742;BME280;33504;52.066;6.096;2024-01-27T04:47:46;103376.22;;;4.01;50.59
47742;BME280;33504;52.066;6.096;2024-01-27T04:50:13;103375.61;;;3.95;50.27
47742;BME280;33504;52.066;6.096;2024-01-27T04:52:40;103369.25;;;4.35;50.18
47742;BME280;33504;52.066;6.096;2024-01-27T04:55:07;103363.10;;;4.15;50.19
47742;BME280;33504;52.066;6.096;2024-01-27T04:57:34;103369.79;;;4.17;50.24
47742;BME280;33504;52.066;6.096;2024-01-27T05:00:01;103366.93;;;3.85;50.72
47742;BME280;33504;52.066;6.096;2024-01-27T05:02:28;103365.81;;;3.98;50.59
47742;BME280;33504;52.066;6.096;2024-01-27T05:04:55;103365.87;;;4.04;50.34
47742;BME280;33504;52.066;6.096;2024-01-27T05:07:22;103365.55;;;4.11;50.08
47742;BME280;33504;52.066;6.096;2024-01-27T05:09:49;103366.38;;;4.36;50.03
47742;BME280;33504;52.066;6.096;2024-01-27T05:12:16;103362.87;;;4.01;50.04
47742;BME280;33504;52.066;6.096;2024-01-27T05:14:43;103363.60;;;3.91;51.01
47742;BME280;33504;52.066;6.096;2024-01-27T05:17:10;103366.12;;;4.02;50.98
47742;BME280;33504;52.066;6.096;2024-01-27T05:19:38;103370.60;;;3.78;50.94
47742;BME280;33504;52.066;6.096;2024-01-27T05:22:05;103375.62;;;4.10;50.83
47742;BME280;33504;52.066;6.096;2024-01-27T05:24:32;103369.56;;;4.21;50.52
47742;BME280;33504;52.066;6.096;2024-01-27T05:26:59;103368.67;;;3.88;50.73
47742;BME280;33504;52.066;6.096;2024-01-27T05:29:27;103372.45;;;4.07;50.72
47742;BME280;33504;52.066;6.096;2024-01-27T05:31:55;103372.90;;;4.15;50.55
47742;BME280;33504;52.066;6.096;2024-01-27T05:34:22;103367.44;;;3.91;50.35
47742;BME280;33504;52.066;6.096;2024-01-27T05:36:49;103368.35;;;3.96;50.43
47742;BME280;33504;52.066;6.096;2024-01-27T05:39:16;103370.90;;;4.34;50.12
47742;BME280;33504;52.066;6.096;2024-01-27T05:41:44;103372.23;;;4.32;50.24
47742;BME280;33504;52.066;6.096;2024-01-27T05:44:11;103371.39;;;3.92;50.43
47742;BME280;33504;52.066;6.096;2024-01-27T05:46:38;103370.58;;;3.90;50.49
47742;BME280;33504;52.066;6.096;2024-01-27T05:49:05;103364.86;;;4.00;50.74
47742;BME280;33504;52.066;6.096;2024-01-27T05:51:32;103360.38;;;3.89;51.01
47742;BME280;33504;52.066;6.096;2024-01-27T05:53:59;103361.78;;;3.74;50.69
47742;BME280;33504;52.066;6.096;2024-01-27T05:56:26;103360.48;;;4.17;50.49
47742;BME280;33504;52.066;6.096;2024-01-27T05:58:53;103363.14;;;4.29;50.31
47742;BME280;33504;52.066;6.096;2024-01-27T06:01:20;103365.32;;;4.22;50.40
47742;BME280;33504;52.066;6.096;2024-01-27T06:03:47;103360.48;;;4.25;50.45
47742;BME280;33504;52.066;6.096;2024-01-27T06:06:15;103365.27;;;4.31;50.28
47742;BME280;33504;52.066;6.096;2024-01-27T06:08:42;103363.43;;;4.18;50.63
47742;BME280;33504;52.066;6.096;2024-01-27T06:11:09;103364.93;;;4.16;50.65
47742;BME280;33504;52.066;6.096;2024-01-27T06:13:37;103362.42;;;3.94;50.78
47742;BME280;33504;52.066;6.096;2024-01-27T06:16:07;103363.85;;;4.21;50.79
47742;BME280;33504;52.066;6.096;2024-01-27T06:18:34;103367.30;;;4.23;50.90
47742;BME280;33504;52.066;6.096;2024-01-27T06:21:02;103367.30;;;4.04;50.74
47742;BME280;33504;52.066;6.096;2024-01-27T06:23:29;103367.88;;;4.43;50.36
47742;BME280;33504;52.066;6.096;2024-01-27T06:25:56;103372.01;;;4.33;50.66
47742;BME280;33504;52.066;6.096;2024-01-27T06:28:23;103369.73;;;4.26;50.32
47742;BME280;33504;52.066;6.096;2024-01-27T06:30:50;103377.61;;;4.31;50.23
47742;BME280;33504;52.066;6.096;2024-01-27T06:33:17;103377.95;;;4.37;50.13
47742;BME280;33504;52.066;6.096;2024-01-27T06:35:44;103381.31;;;4.69;49.96
47742;BME280;33504;52.066;6.096;2024-01-27T06:38:11;103382.60;;;4.24;50.22
47742;BME280;33504;52.066;6.096;2024-01-27T06:40:38;103385.42;;;4.13;50.36
47742;BME280;33504;52.066;6.096;2024-01-27T06:43:06;103387.32;;;4.32;50.03
47742;BME280;33504;52.066;6.096;2024-01-27T06:45:33;103388.38;;;4.23;50.23
47742;BME280;33504;52.066;6.096;2024-01-27T06:48:00;103384.44;;;4.43;49.85
47742;BME280;33504;52.066;6.096;2024-01-27T06:50:27;103388.84;;;4.19;50.35
47742;BME280;33504;52.066;6.096;2024-01-27T06:52:54;103387.38;;;4.58;50.16
47742;BME280;33504;52.066;6.096;2024-01-27T06:55:21;103394.23;;;4.34;49.93
47742;BME280;33504;52.066;6.096;2024-01-27T06:57:48;103396.90;;;4.72;49.85
47742;BME280;33504;52.066;6.096;2024-01-27T07:00:15;103404.60;;;4.51;49.73
47742;BME280;33504;52.066;6.096;2024-01-27T07:02:43;103401.93;;;4.56;49.53
47742;BME280;33504;52.066;6.096;2024-01-27T07:05:11;103403.34;;;4.51;49.49
47742;BME280;33504;52.066;6.096;2024-01-27T07:07:38;103405.59;;;4.51;49.40
47742;BME280;33504;52.066;6.096;2024-01-27T07:10:07;103408.16;;;4.37;49.46
47742;BME280;33504;52.066;6.096;2024-01-27T07:12:35;103403.94;;;4.36;49.32
47742;BME280;33504;52.066;6.096;2024-01-27T07:15:02;103402.11;;;4.23;49.57
47742;BME280;33504;52.066;6.096;2024-01-27T07:17:29;103404.93;;;4.20;49.56
47742;BME280;33504;52.066;6.096;2024-01-27T07:19:57;103404.64;;;3.97;49.94
47742;BME280;33504;52.066;6.096;2024-01-27T07:22:23;103406.93;;;4.43;49.60
47742;BME280;33504;52.066;6.096;2024-01-27T07:24:51;103412.36;;;4.00;49.82
47742;BME280;33504;52.066;6.096;2024-01-27T07:27:18;103413.58;;;4.17;50.06
47742;BME280;33504;52.066;6.096;2024-01-27T07:29:45;103423.28;;;3.75;50.27
47742;BME280;33504;52.066;6.096;2024-01-27T07:32:13;103424.22;;;4.00;50.40
47742;BME280;33504;52.066;6.096;2024-01-27T07:34:40;103428.15;;;3.77;50.40
47742;BME280;33504;52.066;6.096;2024-01-27T07:37:07;103430.41;;;4.02;50.34
47742;BME280;33504;52.066;6.096;2024-01-27T07:39:34;103430.86;;;3.79;50.68
47742;BME280;33504;52.066;6.096;2024-01-27T07:42:01;103435.93;;;3.71;50.48
47742;BME280;33504;52.066;6.096;2024-01-27T07:44:28;103429.53;;;3.92;50.73
47742;BME280;33504;52.066;6.096;2024-01-27T07:46:55;103431.40;;;3.81;50.90
47742;BME280;33504;52.066;6.096;2024-01-27T07:49:22;103435.26;;;4.08;50.56
47742;BME280;33504;52.066;6.096;2024-01-27T07:51:49;103433.33;;;3.80;50.94
47742;BME280;33504;52.066;6.096;2024-01-27T07:54:16;103431.94;;;3.72;51.04
47742;BME280;33504;52.066;6.096;2024-01-27T07:56:44;103429.07;;;3.85;50.72
47742;BME280;33504;52.066;6.096;2024-01-27T07:59:11;103433.47;;;3.46;51.83
47742;BME280;33504;52.066;6.096;2024-01-27T08:01:38;103430.07;;;3.97;51.38
47742;BME280;33504;52.066;6.096;2024-01-27T08:04:05;103430.87;;;3.64;51.35
47742;BME280;33504;52.066;6.096;2024-01-27T08:06:33;103437.72;;;3.24;52.18
47742;BME280;33504;52.066;6.096;2024-01-27T08:09:00;103438.79;;;3.99;51.51
47742;BME280;33504;52.066;6.096;2024-01-27T08:11:27;103442.39;;;3.41;51.25
47742;BME280;33504;52.066;6.096;2024-01-27T08:13:54;103443.84;;;3.73;51.75
47742;BME280;33504;52.066;6.096;2024-01-27T08:16:22;103449.17;;;3.35;51.96
47742;BME280;33504;52.066;6.096;2024-01-27T08:18:49;103450.77;;;3.59;51.70
47742;BME280;33504;52.066;6.096;2024-01-27T08:21:16;103454.17;;;3.71;51.57
47742;BME280;33504;52.066;6.096;2024-01-27T08:23:43;103462.47;;;3.57;51.76
47742;BME280;33504;52.066;6.096;2024-01-27T08:26:10;103455.58;;;3.75;51.74
47742;BME280;33504;52.066;6.096;2024-01-27T08:28:37;103456.82;;;4.23;51.45
47742;BME280;33504;52.066;6.096;2024-01-27T08:31:04;103452.15;;;4.67;50.50
47742;BME280;33504;52.066;6.096;2024-01-27T08:33:31;103452.05;;;4.47;50.27
47742;BME280;33504;52.066;6.096;2024-01-27T08:35:59;103461.73;;;4.56;49.95
47742;BME280;33504;52.066;6.096;2024-01-27T08:38:26;103460.24;;;4.57;49.70
47742;BME280;33504;52.066;6.096;2024-01-27T08:40:53;103462.97;;;4.67;49.65
47742;BME280;33504;52.066;6.096;2024-01-27T08:43:20;103461.71;;;4.88;49.24
47742;BME280;33504;52.066;6.096;2024-01-27T08:45:48;103463.25;;;4.92;48.79
47742;BME280;33504;52.066;6.096;2024-01-27T08:48:15;103462.48;;;5.69;48.26
47742;BME280;33504;52.066;6.096;2024-01-27T08:50:42;103469.04;;;6.06;47.64
47742;BME280;33504;52.066;6.096;2024-01-27T08:53:09;103472.02;;;5.84;47.00
47742;BME280;33504;52.066;6.096;2024-01-27T08:55:36;103475.83;;;5.83;46.93
47742;BME280;33504;52.066;6.096;2024-01-27T08:58:04;103477.49;;;6.19;46.44
47742;BME280;33504;52.066;6.096;2024-01-27T09:00:31;103477.12;;;6.54;45.96
47742;BME280;33504;52.066;6.096;2024-01-27T09:02:58;103473.70;;;7.27;45.56
47742;BME280;33504;52.066;6.096;2024-01-27T09:05:26;103474.58;;;7.30;44.42
47742;BME280;33504;52.066;6.096;2024-01-27T09:07:53;103471.30;;;7.90;43.95
47742;BME280;33504;52.066;6.096;2024-01-27T09:10:20;103468.61;;;8.07;43.24
47742;BME280;33504;52.066;6.096;2024-01-27T09:12:47;103466.52;;;7.61;42.85
47742;BME280;33504;52.066;6.096;2024-01-27T09:15:14;103468.66;;;8.37;42.45
47742;BME280;33504;52.066;6.096;2024-01-27T09:17:41;103468.73;;;8.23;42.26
47742;BME280;33504;52.066;6.096;2024-01-27T09:20:10;103471.59;;;8.57;41.93
47742;BME280;33504;52.066;6.096;2024-01-27T09:22:37;103475.22;;;8.15;41.95
47742;BME280;33504;52.066;6.096;2024-01-27T09:25:05;103479.96;;;8.70;41.80
47742;BME280;33504;52.066;6.096;2024-01-27T09:27:32;103477.64;;;8.57;41.37
47742;BME280;33504;52.066;6.096;2024-01-27T09:29:59;103477.03;;;9.08;41.15
47742;BME280;33504;52.066;6.096;2024-01-27T09:32:26;103473.85;;;10.08;40.01
47742;BME280;33504;52.066;6.096;2024-01-27T09:34:53;103474.08;;;10.22;39.04
47742;BME280;33504;52.066;6.096;2024-01-27T09:37:20;103473.38;;;10.29;38.92
47742;BME280;33504;52.066;6.096;2024-01-27T09:39:47;103476.99;;;10.87;37.92
47742;BME280;33504;52.066;6.096;2024-01-27T09:42:14;103474.24;;;11.19;37.11
47742;BME280;33504;52.066;6.096;2024-01-27T09:44:43;103479.76;;;11.10;36.87
47742;BME280;33504;52.066;6.096;2024-01-27T09:47:11;103479.34;;;11.15;36.85
47742;BME280;33504;52.066;6.096;2024-01-27T09:49:39;103484.52;;;10.26;37.49
47742;BME280;33504;52.066;6.096;2024-01-27T09:52:07;103480.91;;;10.11;38.04
47742;BME280;33504;52.066;6.096;2024-01-27T09:54:34;103488.67;;;9.39;39.34
47742;BME280;33504;52.066;6.096;2024-01-27T09:57:02;103493.03;;;8.93;39.89
47742;BME280;33504;52.066;6.096;2024-01-27T09:59:30;103500.88;;;8.26;41.03
47742;BME280;33504;52.066;6.096;2024-01-27T10:01:59;103504.56;;;7.83;42.08
47742;BME280;33504;52.066;6.096;2024-01-27T10:04:28;103507.21;;;8.42;42.20
47742;BME280;33504;52.066;6.096;2024-01-27T10:06:58;103504.46;;;8.17;42.15
47742;BME280;33504;52.066;6.096;2024-01-27T10:09:25;103510.79;;;7.07;43.69
47742;BME280;33504;52.066;6.096;2024-01-27T10:11:54;103505.00;;;7.49;43.85
47742;BME280;33504;52.066;6.096;2024-01-27T10:14:22;103508.79;;;7.43;43.89
47742;BME280;33504;52.066;6.096;2024-01-27T10:16:49;103514.28;;;7.37;43.69
47742;BME280;33504;52.066;6.096;2024-01-27T10:19:18;103511.15;;;8.32;43.64
47742;BME280;33504;52.066;6.096;2024-01-27T10:21:46;103510.61;;;9.11;42.16
47742;BME280;33504;52.066;6.096;2024-01-27T10:24:14;103508.63;;;10.61;39.25
47742;BME280;33504;52.066;6.096;2024-01-27T10:26:40;103512.89;;;11.45;37.94
47742;BME280;33504;52.066;6.096;2024-01-27T10:29:08;103513.24;;;11.83;37.09
47742;BME280;33504;52.066;6.096;2024-01-27T10:31:35;103506.23;;;12.53;35.59
47742;BME280;33504;52.066;6.096;2024-01-27T10:34:03;103505.28;;;13.30;34.90
47742;BME280;33504;52.066;6.096;2024-01-27T10:36:39;103503.53;;;13.34;33.87
47742;BME280;33504;52.066;6.096;2024-01-27T10:39:16;103499.56;;;14.12;32.76
47742;BME280;33504;52.066;6.096;2024-01-27T10:41:45;103498.63;;;14.67;32.27
47742;BME280;33504;52.066;6.096;2024-01-27T10:44:14;103503.23;;;15.07;31.64
47742;BME280;33504;52.066;6.096;2024-01-27T10:46:44;103506.01;;;15.54;30.68
47742;BME280;33504;52.066;6.096;2024-01-27T10:49:13;103505.75;;;15.65;30.57
47742;BME280;33504;52.066;6.096;2024-01-27T10:51:44;103501.05;;;15.92;30.17
47742;BME280;33504;52.066;6.096;2024-01-27T10:54:14;103504.89;;;15.64;29.56
47742;BME280;33504;52.066;6.096;2024-01-27T10:56:42;103502.42;;;15.98;29.43
47742;BME280;33504;52.066;6.096;2024-01-27T10:59:09;103501.30;;;16.39;29.56
47742;BME280;33504;52.066;6.096;2024-01-27T11:01:40;103492.29;;;16.72;28.51
47742;BME280;33504;52.066;6.096;2024-01-27T11:04:08;103492.56;;;16.77;28.99
47742;BME280;33504;52.066;6.096;2024-01-27T11:06:38;103488.67;;;16.93;28.63
47742;BME280;33504;52.066;6.096;2024-01-27T11:09:08;103489.61;;;17.68;28.12
47742;BME280;33504;52.066;6.096;2024-01-27T11:11:36;103495.22;;;17.78;27.02
47742;BME280;33504;52.066;6.096;2024-01-27T11:14:03;103488.86;;;17.79;26.63
47742;BME280;33504;52.066;6.096;2024-01-27T11:16:30;103486.99;;;17.78;26.24
47742;BME280;33504;52.066;6.096;2024-01-27T11:18:57;103478.53;;;17.63;26.49
47742;BME280;33504;52.066;6.096;2024-01-27T11:21:25;103477.49;;;18.15;26.28
47742;BME280;33504;52.066;6.096;2024-01-27T11:23:53;103473.26;;;18.61;25.89
47742;BME280;33504;52.066;6.096;2024-01-27T11:26:21;103466.52;;;18.79;24.96
47742;BME280;33504;52.066;6.096;2024-01-27T11:28:49;103472.81;;;18.58;25.66
47742;BME280;33504;52.066;6.096;2024-01-27T11:31:18;103471.74;;;18.22;25.49
47742;BME280;33504;52.066;6.096;2024-01-27T11:33:47;103466.99;;;18.19;25.53
47742;BME280;33504;52.066;6.096;2024-01-27T11:36:19;103458.32;;;18.32;25.89
47742;BME280;33504;52.066;6.096;2024-01-27T11:38:47;103460.21;;;18.06;25.23
47742;BME280;33504;52.066;6.096;2024-01-27T11:41:23;103468.86;;;17.08;26.22
47742;BME280;33504;52.066;6.096;2024-01-27T11:43:52;103471.83;;;16.68;26.89
47742;BME280;33504;52.066;6.096;2024-01-27T11:46:20;103468.71;;;16.31;27.00
47742;BME280;33504;52.066;6.096;2024-01-27T11:48:47;103472.59;;;15.95;27.81
47742;BME280;33504;52.066;6.096;2024-01-27T11:51:15;103471.59;;;15.28;28.53
47742;BME280;33504;52.066;6.096;2024-01-27T11:53:43;103472.97;;;14.88;29.14
47742;BME280;33504;52.066;6.096;2024-01-27T11:56:10;103480.40;;;14.69;29.11
47742;BME280;33504;52.066;6.096;2024-01-27T11:58:37;103476.26;;;14.57;29.44
47742;BME280;33504;52.066;6.096;2024-01-27T12:01:04;103474.90;;;14.77;29.95
47742;BME280;33504;52.066;6.096;2024-01-27T12:03:32;103471.45;;;14.76;30.43
47742;BME280;33504;52.066;6.096;2024-01-27T12:06:00;103463.66;;;14.15;30.37
47742;BME280;33504;52.066;6.096;2024-01-27T12:08:27;103462.09;;;14.21;30.12
47742;BME280;33504;52.066;6.096;2024-01-27T12:10:54;103470.18;;;14.18;30.43
47742;BME280;33504;52.066;6.096;2024-01-27T12:13:22;103466.20;;;14.07;30.65
47742;BME280;33504;52.066;6.096;2024-01-27T12:15:49;103465.22;;;14.00;30.49
47742;BME280;33504;52.066;6.096;2024-01-27T12:18:16;103469.40;;;14.10;30.17
47742;BME280;33504;52.066;6.096;2024-01-27T12:20:44;103471.37;;;14.68;30.08
47742;BME280;33504;52.066;6.096;2024-01-27T12:23:12;103477.02;;;14.62;30.00
47742;BME280;33504;52.066;6.096;2024-01-27T12:25:39;103479.05;;;14.76;29.79
47742;BME280;33504;52.066;6.096;2024-01-27T12:28:06;103480.13;;;15.01;29.72
47742;BME280;33504;52.066;6.096;2024-01-27T12:30:34;103473.95;;;14.34;29.94
47742;BME280;33504;52.066;6.096;2024-01-27T12:33:01;103470.77;;;14.26;30.08
47742;BME280;33504;52.066;6.096;2024-01-27T12:35:36;103469.60;;;14.99;29.92
47742;BME280;33504;52.066;6.096;2024-01-27T12:38:03;103469.36;;;15.18;29.50
47742;BME280;33504;52.066;6.096;2024-01-27T12:40:32;103476.46;;;15.03;29.75
47742;BME280;33504;52.066;6.096;2024-01-27T12:43:00;103471.06;;;14.14;29.77
47742;BME280;33504;52.066;6.096;2024-01-27T12:45:27;103472.96;;;13.94;30.32
47742;BME280;33504;52.066;6.096;2024-01-27T12:47:55;103464.89;;;13.88;30.67
47742;BME280;33504;52.066;6.096;2024-01-27T12:50:22;103465.08;;;13.97;30.23
47742;BME280;33504;52.066;6.096;2024-01-27T12:52:49;103464.98;;;13.60;30.93
47742;BME280;33504;52.066;6.096;2024-01-27T12:55:17;103466.33;;;13.52;30.80
47742;BME280;33504;52.066;6.096;2024-01-27T12:57:44;103469.62;;;13.66;30.65